createdAt,value
2022-12-04T00:01:34.222Z,101137.39
2022-12-04T00:04:02.414Z,101138.11
2022-12-04T00:06:30.321Z,101135.33
2022-12-04T00:08:58.569Z,101123.66
2022-12-04T00:11:27.791Z,101119.72
2022-12-04T00:13:55.245Z,101121.40
2022-12-04T00:16:24.779Z,101128.69
2022-12-04T00:18:52.430Z,101132.20
2022-12-04T00:21:21.503Z,101140.67
2022-12-04T00:23:49.724Z,101144.08
2022-12-04T00:26:18.989Z,101145.08
2022-12-04T00:28:47.167Z,101143.70
2022-12-04T00:31:16.099Z,101140.61
2022-12-04T00:33:44.079Z,101140.81
2022-12-04T00:36:14.040Z,101140.37
2022-12-04T00:38:43.029Z,101139.89
2022-12-04T00:41:11.584Z,101147.69
2022-12-04T00:43:38.767Z,101150.52
2022-12-04T00:46:06.420Z,101149.77
2022-12-04T00:48:33.886Z,101145.31
2022-12-04T00:51:04.622Z,101146.54
2022-12-04T00:53:32.073Z,101141.20
2022-12-04T00:55:59.227Z,101139.83
2022-12-04T00:58:26.481Z,101133.88
2022-12-04T01:01:02.501Z,101132.52
2022-12-04T01:03:29.724Z,101133.02
2022-12-04T01:05:57.143Z,101138.35
2022-12-04T01:08:24.501Z,101143.19
2022-12-04T01:10:51.757Z,101147.52
2022-12-04T01:13:19.121Z,101149.67
2022-12-04T01:15:47.542Z,101150.16
2022-12-04T01:18:15.111Z,101149.46
2022-12-04T01:20:50.791Z,101137.82
2022-12-04T01:23:18.254Z,101138.73
2022-12-04T01:25:53.418Z,101146.73
2022-12-04T01:28:20.647Z,101143.08
2022-12-04T01:30:57.010Z,101146.45
2022-12-04T01:33:24.263Z,101149.80
2022-12-04T01:35:57.756Z,101160.04
2022-12-04T01:38:25.537Z,101158.17
2022-12-04T01:40:52.825Z,101155.11
2022-12-04T01:43:20.963Z,101148.66
2022-12-04T01:45:49.780Z,101147.48
2022-12-04T01:48:27.667Z,101141.39
2022-12-04T01:50:57.764Z,101146.14
2022-12-04T01:53:25.701Z,101144.83
2022-12-04T01:55:53.399Z,101142.02
2022-12-04T01:58:27.700Z,101140.45
2022-12-04T02:01:03.691Z,101137.89
2022-12-04T02:03:34.131Z,101134.63
2022-12-04T02:06:01.867Z,101138.52
2022-12-04T02:08:30.755Z,101132.32
2022-12-04T02:11:06.801Z,101131.72
2022-12-04T02:13:42.197Z,101124.84
2022-12-04T02:16:15.932Z,101121.73
2022-12-04T02:18:53.044Z,101124.64
2022-12-04T02:21:28.592Z,101121.22
2022-12-04T02:24:14.278Z,101116.77
2022-12-04T02:26:48.167Z,101109.61
2022-12-04T02:29:29.056Z,101114.89
2022-12-04T02:32:00.726Z,101120.00
2022-12-04T02:34:30.832Z,101114.35
2022-12-04T02:37:03.410Z,101112.47
2022-12-04T02:39:39.014Z,101119.61
2022-12-04T02:42:13.903Z,101117.75
2022-12-04T02:44:46.414Z,101119.45
2022-12-04T02:47:19.153Z,101127.56
2022-12-04T02:49:51.658Z,101121.23
2022-12-04T02:52:24.096Z,101118.55
2022-12-04T02:54:57.035Z,101123.09
2022-12-04T02:57:29.870Z,101122.44
2022-12-04T03:00:01.938Z,101123.45
2022-12-04T03:02:34.886Z,101121.02
2022-12-04T03:05:08.761Z,101124.46
2022-12-04T03:07:39.298Z,101120.04
2022-12-04T03:10:13.667Z,101119.17
2022-12-04T03:12:45.253Z,101109.55
2022-12-04T03:15:18.886Z,101103.39
2022-12-04T03:17:53.989Z,101100.36
2022-12-04T03:20:23.505Z,101101.27
2022-12-04T03:22:56.175Z,101104.95
2022-12-04T03:25:27.429Z,101104.41
2022-12-04T03:28:00.002Z,101105.59
2022-12-04T03:30:32.297Z,101107.11
2022-12-04T03:33:05.205Z,101104.88
2022-12-04T03:35:40.090Z,101110.63
2022-12-04T03:38:15.941Z,101114.36
2022-12-04T03:40:50.773Z,101107.16
2022-12-04T03:43:22.018Z,101096.05
2022-12-04T03:45:53.831Z,101097.39
2022-12-04T03:48:25.941Z,101094.34
2022-12-04T03:50:59.466Z,101096.43
2022-12-04T03:53:37.381Z,101091.62
2022-12-04T03:56:10.618Z,101092.06
2022-12-04T03:58:43.627Z,101085.05
2022-12-04T04:01:13.554Z,101091.05
2022-12-04T04:03:46.118Z,101100.98
2022-12-04T04:06:19.517Z,101092.23
2022-12-04T04:08:51.170Z,101104.85
2022-12-04T04:11:23.133Z,101090.77
2022-12-04T04:14:12.644Z,101087.91
2022-12-04T04:17:00.136Z,101098.34
2022-12-04T04:19:47.767Z,101100.41
2022-12-04T04:22:36.215Z,101095.48
2022-12-04T04:25:08.643Z,101093.84
2022-12-04T04:27:36.013Z,101085.75
2022-12-04T04:30:03.437Z,101077.72
2022-12-04T04:32:38.744Z,101073.42
2022-12-04T04:35:17.879Z,101078.38
2022-12-04T04:37:54.550Z,101078.74
2022-12-04T04:40:23.176Z,101083.31
2022-12-04T04:42:57.043Z,101084.32
2022-12-04T04:45:28.851Z,101084.17
2022-12-04T04:48:02.198Z,101097.91
2022-12-04T04:50:30.687Z,101096.91
2022-12-04T04:53:03.767Z,101099.16
2022-12-04T04:55:34.698Z,101102.77
2022-12-04T04:58:12.263Z,101097.53
2022-12-04T05:00:40.389Z,101112.83
2022-12-04T05:03:08.257Z,101104.16
2022-12-04T05:05:35.641Z,101106.14
2022-12-04T05:08:02.804Z,101112.45
2022-12-04T05:10:29.946Z,101112.91
2022-12-04T05:12:57.103Z,101108.42
2022-12-04T05:15:24.400Z,101108.42
2022-12-04T05:17:51.590Z,101101.08
2022-12-04T05:20:19.109Z,101100.92
2022-12-04T05:22:46.267Z,101103.39
2022-12-04T05:25:13.526Z,101102.65
2022-12-04T05:27:40.706Z,101106.39
2022-12-04T05:30:11.868Z,101115.11
2022-12-04T05:32:39.472Z,101117.33
2022-12-04T05:35:11.010Z,101124.17
2022-12-04T05:37:41.865Z,101120.77
2022-12-04T05:40:11.197Z,101119.81
2022-12-04T05:42:38.415Z,101116.55
2022-12-04T05:45:06.557Z,101124.42
2022-12-04T05:47:33.875Z,101116.52
2022-12-04T05:50:05.148Z,101119.72
2022-12-04T05:52:32.336Z,101118.22
2022-12-04T05:54:59.398Z,101118.05
2022-12-04T05:57:29.799Z,101118.17
2022-12-04T05:59:58.028Z,101118.45
2022-12-04T06:02:25.759Z,101115.67
2022-12-04T06:04:53.486Z,101119.85
2022-12-04T06:07:20.669Z,101126.59
2022-12-04T06:09:48.333Z,101123.58
2022-12-04T06:12:15.590Z,101124.14
2022-12-04T06:14:42.659Z,101116.79
2022-12-04T06:17:10.191Z,101122.02
2022-12-04T06:19:37.545Z,101122.86
2022-12-04T06:22:04.755Z,101124.38
2022-12-04T06:24:32.049Z,101138.11
2022-12-04T06:29:49.220Z,101136.20
2022-12-04T06:32:21.250Z,101136.06
2022-12-04T06:34:51.703Z,101135.71
2022-12-04T06:37:22.324Z,101138.02
2022-12-04T06:39:49.602Z,101143.74
2022-12-04T06:42:16.940Z,101145.48
2022-12-04T06:44:44.451Z,101149.23
2022-12-04T06:47:11.807Z,101152.15
2022-12-04T06:49:39.393Z,101148.07
2022-12-04T06:52:07.096Z,101147.38
2022-12-04T06:54:34.559Z,101143.73
2022-12-04T06:57:02.005Z,101147.46
2022-12-04T06:59:29.451Z,101156.00
2022-12-04T07:01:56.878Z,101156.04
2022-12-04T07:04:24.889Z,101152.02
2022-12-04T07:06:52.106Z,101147.02
2022-12-04T07:09:20.511Z,101145.52
2022-12-04T07:11:47.944Z,101149.59
2022-12-04T07:14:16.014Z,101149.36
2022-12-04T07:16:44.346Z,101150.21
2022-12-04T07:19:13.442Z,101151.52
2022-12-04T07:21:40.750Z,101152.88
2022-12-04T07:24:08.768Z,101154.42
2022-12-04T07:26:36.067Z,101146.54
2022-12-04T07:29:03.437Z,101151.30
2022-12-04T07:31:32.375Z,101152.64
2022-12-04T07:34:00.486Z,101152.15
2022-12-04T07:36:28.865Z,101150.48
2022-12-04T07:38:57.860Z,101157.95
2022-12-04T07:41:25.396Z,101168.42
2022-12-04T07:43:52.981Z,101171.34
2022-12-04T07:46:22.259Z,101169.73
2022-12-04T07:48:49.698Z,101171.39
2022-12-04T07:51:19.135Z,101179.02
2022-12-04T07:53:47.212Z,101169.06
2022-12-04T07:56:15.695Z,101172.58
2022-12-04T07:58:43.457Z,101173.77
2022-12-04T08:01:12.998Z,101177.00
2022-12-04T08:03:46.684Z,101180.80
2022-12-04T08:06:15.353Z,101185.27
2022-12-04T08:08:42.711Z,101180.02
2022-12-04T08:11:12.600Z,101185.14
2022-12-04T08:13:39.916Z,101178.31
2022-12-04T08:16:09.428Z,101174.39
2022-12-04T08:18:36.845Z,101174.27
2022-12-04T08:21:09.352Z,101174.29
2022-12-04T08:23:37.019Z,101171.58
2022-12-04T08:26:05.972Z,101175.14
2022-12-04T08:28:33.742Z,101174.08
2022-12-04T08:31:05.227Z,101178.32
2022-12-04T08:33:33.053Z,101176.41
2022-12-04T08:36:00.713Z,101175.59
2022-12-04T08:38:27.864Z,101177.70
2022-12-04T08:40:55.630Z,101173.86
2022-12-04T08:43:27.999Z,101168.18
2022-12-04T08:46:00.615Z,101168.64
2022-12-04T08:48:28.594Z,101171.27
2022-12-04T08:50:56.774Z,101169.66
2022-12-04T08:53:25.362Z,101162.23
2022-12-04T08:55:52.763Z,101165.80
2022-12-04T08:58:20.635Z,101159.76
2022-12-04T09:00:48.303Z,101171.38
2022-12-04T09:03:24.747Z,101164.81
2022-12-04T09:06:29.914Z,101172.55
2022-12-04T09:08:58.489Z,101170.88
2022-12-04T09:11:27.906Z,101164.21
2022-12-04T09:13:56.085Z,101162.91
2022-12-04T09:16:25.477Z,101172.10
2022-12-04T09:18:53.059Z,101164.10
2022-12-04T09:21:22.329Z,101156.19
2022-12-04T09:23:50.102Z,101165.13
2022-12-04T09:26:24.893Z,101164.53
2022-12-04T09:28:53.137Z,101160.48
2022-12-04T09:31:21.576Z,101155.61
2022-12-04T09:33:49.550Z,101164.52
2022-12-04T09:36:17.216Z,101161.05
2022-12-04T09:38:46.204Z,101160.14
2022-12-04T09:41:25.008Z,101156.15
2022-12-04T09:43:59.042Z,101156.79
2022-12-04T09:46:32.885Z,101154.70
2022-12-04T09:49:04.194Z,101155.01
2022-12-04T09:51:31.941Z,101155.20
2022-12-04T09:54:03.864Z,101162.41
2022-12-04T09:56:33.387Z,101148.60
2022-12-04T09:59:08.568Z,101144.41
2022-12-04T10:01:46.720Z,101135.83
2022-12-04T10:04:15.297Z,101137.52
2022-12-04T10:06:49.061Z,101129.58
2022-12-04T10:09:22.359Z,101132.12
2022-12-04T10:11:58.623Z,101125.87
2022-12-04T10:14:46.741Z,101128.45
2022-12-04T10:17:32.671Z,101125.37
2022-12-04T10:20:12.296Z,101136.18
2022-12-04T10:22:51.630Z,101132.22
2022-12-04T10:25:23.186Z,101122.15
2022-12-04T10:27:56.581Z,101123.61
2022-12-04T10:30:26.810Z,101135.92
2022-12-04T10:32:58.586Z,101124.71
2022-12-04T10:35:29.749Z,101121.61
2022-12-04T10:38:01.277Z,101116.00
2022-12-04T10:40:34.759Z,101121.51
2022-12-04T10:43:07.637Z,101107.99
2022-12-04T10:45:34.912Z,101104.02
2022-12-04T10:48:02.691Z,101096.59
2022-12-04T10:50:30.017Z,101098.13
2022-12-04T10:52:57.898Z,101101.16
2022-12-04T10:55:38.450Z,101098.64
2022-12-04T10:58:16.302Z,101091.73
2022-12-04T11:00:45.934Z,101097.13
2022-12-04T11:03:26.181Z,101088.52
2022-12-04T11:05:59.580Z,101084.27
2022-12-04T11:08:32.649Z,101083.01
2022-12-04T11:11:03.441Z,101077.31
2022-12-04T11:13:31.304Z,101072.56
2022-12-04T11:16:00.597Z,101079.27
2022-12-04T11:18:30.422Z,101084.46
2022-12-04T11:21:01.458Z,101085.21
2022-12-04T11:23:31.477Z,101085.88
2022-12-04T11:26:05.912Z,101076.89
2022-12-04T11:28:43.315Z,101074.46
2022-12-04T11:31:17.719Z,101073.58
2022-12-04T11:33:49.773Z,101068.32
2022-12-04T11:36:23.871Z,101071.56
2022-12-04T11:38:52.303Z,101074.80
2022-12-04T11:41:29.449Z,101071.00
2022-12-04T11:44:00.286Z,101079.74
2022-12-04T11:46:29.628Z,101065.95
2022-12-04T11:48:57.353Z,101067.45
2022-12-04T11:51:35.906Z,101061.97
2022-12-04T11:54:10.492Z,101062.16
2022-12-04T11:56:41.333Z,101070.91
2022-12-04T11:59:45.862Z,101065.55
2022-12-04T12:02:49.076Z,101068.38
2022-12-04T12:05:37.303Z,101067.83
2022-12-04T12:08:15.353Z,101063.11
2022-12-04T12:10:46.655Z,101067.41
2022-12-04T12:13:24.910Z,101065.55
2022-12-04T12:16:01.946Z,101070.48
2022-12-04T12:18:44.291Z,101070.05
2022-12-04T12:21:19.189Z,101058.91
2022-12-04T12:23:58.763Z,101048.55
2022-12-04T12:26:33.867Z,101052.25
2022-12-04T12:29:30.257Z,101053.73
2022-12-04T12:32:15.097Z,101047.59
2022-12-04T12:34:48.454Z,101046.23
2022-12-04T12:37:23.902Z,101042.92
2022-12-04T12:39:58.841Z,101039.01
2022-12-04T12:42:31.018Z,101032.01
2022-12-04T12:45:05.028Z,101042.45
2022-12-04T12:47:39.228Z,101046.93
2022-12-04T12:50:15.004Z,101057.17
2022-12-04T12:52:48.994Z,101061.42
2022-12-04T12:55:21.517Z,101060.71
2022-12-04T12:57:53.995Z,101058.83
2022-12-04T13:00:24.372Z,101050.08
2022-12-04T13:02:56.908Z,101051.83
2022-12-04T13:05:31.210Z,101057.05
2022-12-04T13:08:06.640Z,101057.84
2022-12-04T13:10:38.065Z,101064.59
2022-12-04T13:13:08.999Z,101059.90
2022-12-04T13:15:43.001Z,101062.16
2022-12-04T13:18:16.628Z,101059.96
2022-12-04T13:20:53.184Z,101053.52
2022-12-04T13:23:35.428Z,101053.23
2022-12-04T13:26:10.522Z,101058.90
2022-12-04T13:28:52.723Z,101054.92
2022-12-04T13:31:32.137Z,101057.23
2022-12-04T13:34:13.605Z,101060.41
2022-12-04T13:36:56.978Z,101071.54
2022-12-04T13:40:00.892Z,101066.63
2022-12-04T13:42:29.576Z,101067.14
2022-12-04T13:45:00.442Z,101068.43
2022-12-04T13:47:33.341Z,101068.20
2022-12-04T13:50:27.908Z,101073.95
2022-12-04T13:52:55.461Z,101071.99
2022-12-04T13:55:36.939Z,101072.41
2022-12-04T13:58:26.442Z,101086.67
2022-12-04T14:01:04.284Z,101082.09
2022-12-04T14:03:36.059Z,101087.51
2022-12-04T14:06:05.345Z,101086.25
2022-12-04T14:08:39.844Z,101081.98
2022-12-04T14:11:13.927Z,101084.20
2022-12-04T14:13:49.349Z,101080.93
2022-12-04T14:16:26.777Z,101076.70
2022-12-04T14:18:57.570Z,101075.74
2022-12-04T14:21:26.161Z,101079.74
2022-12-04T14:23:54.855Z,101078.55
2022-12-04T14:27:09.631Z,101085.88
2022-12-04T14:29:36.120Z,101085.02
2022-12-04T14:32:10.971Z,101087.33
2022-12-04T14:34:39.802Z,101089.41
2022-12-04T14:37:08.233Z,101094.05
2022-12-04T14:39:40.979Z,101094.74
2022-12-04T14:42:18.118Z,101100.19
2022-12-04T14:44:50.693Z,101104.02
2022-12-04T14:47:33.206Z,101102.25
2022-12-04T14:50:13.974Z,101098.27
2022-12-04T14:52:46.094Z,101093.90
2022-12-04T14:55:25.883Z,101092.35
2022-12-04T14:57:59.182Z,101094.24
2022-12-04T15:00:27.908Z,101094.95
2022-12-04T15:02:59.158Z,101103.15
2022-12-04T15:05:29.830Z,101092.85
2022-12-04T15:08:01.296Z,101098.66
2022-12-04T15:10:48.231Z,101102.92
2022-12-04T15:13:26.075Z,101101.64
2022-12-04T15:15:53.719Z,101106.34
2022-12-04T15:18:21.180Z,101102.79
2022-12-04T15:20:58.023Z,101099.08
2022-12-04T15:23:26.389Z,101104.79
2022-12-04T15:25:56.918Z,101099.31
2022-12-04T15:28:29.597Z,101104.11
2022-12-04T15:30:59.184Z,101098.85
2022-12-04T15:33:30.964Z,101099.38
2022-12-04T15:36:01.665Z,101102.05
2022-12-04T15:38:29.830Z,101096.50
2022-12-04T15:40:59.306Z,101097.87
2022-12-04T15:43:30.905Z,101094.10
2022-12-04T15:45:58.505Z,101095.70
2022-12-04T15:48:33.180Z,101085.35
2022-12-04T15:51:03.344Z,101086.38
2022-12-04T15:53:33.795Z,101087.86
2022-12-04T15:56:03.694Z,101091.41
2022-12-04T15:58:32.932Z,101095.16
